Time;durP1;ratioP1;P1;durP2;ratioP2;P2;SDS_P1;SDS_P2;PMS_P1;PMS_P2;Temp;Humidity;BMP_temperature;BMP_pressure;BME280_temperature;BME280_humidity;BME280_pressure;Samples;Min_cycle;Max_cycle;Signal;HPM_P1;HPM_P2
2023/11/18 00:00:17;;;;;;;0.20;0.20;;;;;;;6.79;58.90;99849.37;4438958;32;33953;-79
2023/11/18 00:02:48;;;;;;;0.08;0.08;;;;;;;6.14;60.74;99851.06;4440446;32;32861;-79
2023/11/18 00:05:15;;;;;;;0.20;0.20;;;;;;;6.20;61.26;99847.41;4439319;32;34290;-79
2023/11/18 00:07:43;;;;;;;0.00;0.00;;;;;;;6.08;61.37;99848.59;4439523;32;33814;-80
2023/11/18 00:10:11;;;;;;;0.85;0.85;;;;;;;6.57;59.83;99856.97;4440064;32;33937;-80
2023/11/18 00:12:41;;;;;;;0.10;0.10;;;;;;;6.67;59.05;99856.69;4439780;32;34304;-79
2023/11/18 00:15:11;;;;;;;0.00;0.00;;;;;;;6.40;60.42;99860.88;4437671;32;33194;-79
2023/11/18 00:17:40;;;;;;;0.75;0.75;;;;;;;6.59;59.60;99856.00;4438651;32;34261;-79
2023/11/18 00:20:09;;;;;;;0.47;0.47;;;;;;;6.37;60.20;99862.75;4439018;32;34029;-79
2023/11/18 00:22:37;;;;;;;1.02;0.80;;;;;;;6.71;59.27;99864.47;4427687;32;34092;-79
2023/11/18 00:25:08;;;;;;;0.00;0.00;;;;;;;6.60;59.30;99868.25;4452568;32;33610;-80
2023/11/18 00:27:37;;;;;;;0.10;0.10;;;;;;;6.81;58.73;99858.94;4430552;32;34191;-79
2023/11/18 00:30:05;;;;;;;0.00;0.00;;;;;;;7.09;57.86;99863.41;4439409;32;33988;-80
2023/11/18 00:32:34;;;;;;;0.00;0.00;;;;;;;6.91;58.48;99870.03;4438883;32;34097;-79
2023/11/18 00:35:04;;;;;;;0.20;0.20;;;;;;;6.64;59.39;99871.63;4438029;32;33639;-80
2023/11/18 00:37:33;;;;;;;0.45;0.45;;;;;;;6.40;59.95;99868.75;4427351;32;35080;-80
2023/11/18 00:40:01;;;;;;;1.23;0.47;;;;;;;6.60;59.49;99873.50;4438861;32;33330;-79
2023/11/18 00:42:31;;;;;;;0.03;0.03;;;;;;;5.75;62.34;99884.28;4440928;32;34422;-79
2023/11/18 00:44:58;;;;;;;0.00;0.00;;;;;;;6.29;60.57;99878.66;4428129;32;32892;-80
2023/11/18 00:47:27;;;;;;;0.10;0.10;;;;;;;6.86;58.79;99875.41;4439341;32;33886;-79
2023/11/18 00:49:55;;;;;;;0.00;0.00;;;;;;;6.43;60.18;99877.47;4427526;32;34021;-79
2023/11/18 00:52:23;;;;;;;0.10;0.10;;;;;;;6.56;59.53;99878.87;4439044;32;33478;-79
2023/11/18 00:54:51;;;;;;;0.05;0.05;;;;;;;6.60;59.15;99875.28;4439010;32;34191;-80
2023/11/18 00:57:19;;;;;;;0.00;0.00;;;;;;;6.56;59.27;99863.13;4431238;32;34605;-80
2023/11/18 00:59:46;;;;;;;0.55;0.55;;;;;;;6.52;59.33;99871.97;4428633;32;36345;-80
2023/11/18 01:02:14;;;;;;;0.32;0.32;;;;;;;6.36;59.96;99866.25;4425105;32;34268;-80
2023/11/18 01:04:42;;;;;;;0.30;0.30;;;;;;;6.02;61.01;99877.56;4412542;32;33742;-80
2023/11/18 01:07:10;;;;;;;0.00;0.00;;;;;;;6.79;58.59;99887.00;4419000;32;32831;-79
2023/11/18 01:09:38;;;;;;;0.62;0.62;;;;;;;6.58;59.23;99882.31;4426286;32;34251;-79
2023/11/18 01:12:09;;;;;;;1.70;0.93;;;;;;;6.59;58.38;99886.63;4413639;32;33061;-79
2023/11/18 01:14:39;;;;;;;0.60;0.53;;;;;;;6.52;58.84;99882.47;4426488;32;33714;-79
2023/11/18 01:17:09;;;;;;;0.00;0.00;;;;;;;6.45;59.32;99883.50;4423202;32;33739;-79
2023/11/18 01:19:37;;;;;;;0.00;0.00;;;;;;;6.43;58.85;99893.19;4424043;32;33507;-79
2023/11/18 01:22:06;;;;;;;0.32;0.17;;;;;;;6.26;59.37;99894.47;4426129;32;33629;-79
2023/11/18 01:24:34;;;;;;;0.10;0.10;;;;;;;6.43;59.07;99888.81;4425200;32;32706;-80
2023/11/18 01:27:03;;;;;;;0.10;0.10;;;;;;;6.23;59.44;99897.19;4411198;32;33020;-80
2023/11/18 01:29:33;;;;;;;0.20;0.20;;;;;;;6.19;59.76;99890.28;4424317;32;34160;-79
2023/11/18 01:32:08;;;;;;;0.00;0.00;;;;;;;6.40;58.75;99888.88;4425953;32;34025;-79
2023/11/18 01:34:38;;;;;;;0.00;0.00;;;;;;;6.40;58.43;99894.97;4427935;32;32350;-79
2023/11/18 01:37:07;;;;;;;0.08;0.08;;;;;;;6.70;57.80;99891.63;4429872;32;34188;-79
2023/11/18 01:39:35;;;;;;;0.73;0.60;;;;;;;6.75;57.60;99895.00;4428688;32;34040;-80
2023/11/18 01:42:04;;;;;;;0.20;0.13;;;;;;;5.78;60.38;99885.97;4424311;32;34789;-79
2023/11/18 01:44:33;;;;;;;0.08;0.08;;;;;;;6.31;58.74;99896.97;4424892;32;32614;-79
2023/11/18 01:47:05;;;;;;;1.60;1.35;;;;;;;6.24;59.16;99887.53;4426572;32;35087;-79
2023/11/18 01:49:37;;;;;;;0.00;0.00;;;;;;;6.17;59.37;99892.06;4428971;32;32352;-79
2023/11/18 01:52:07;;;;;;;0.00;0.00;;;;;;;6.26;58.90;99889.22;4423649;32;33831;-78
2023/11/18 01:54:37;;;;;;;0.57;0.57;;;;;;;6.27;58.83;99898.81;4423628;32;34619;-78
2023/11/18 01:57:05;;;;;;;0.10;0.10;;;;;;;6.28;59.07;99890.06;4424677;32;33551;-78
2023/11/18 01:59:33;;;;;;;0.00;0.00;;;;;;;6.49;58.30;99887.78;4418126;32;33500;-78
2023/11/18 02:02:02;;;;;;;0.25;0.25;;;;;;;6.36;58.70;99902.97;4406490;32;34024;-79
2023/11/18 02:04:30;;;;;;;0.85;0.85;;;;;;;6.73;57.47;99905.50;4419899;32;33864;-79
2023/11/18 02:06:58;;;;;;;0.00;0.00;;;;;;;6.40;58.28;99909.84;4420141;32;34408;-79
2023/11/18 02:09:30;;;;;;;0.80;0.80;;;;;;;6.12;59.34;99907.94;4420302;32;34030;-79
2023/11/18 02:12:20;;;;;;;0.30;0.30;;;;;;;6.03;59.58;99908.16;4395731;32;33106;-80
2023/11/18 02:14:48;;;;;;;0.10;0.08;;;;;;;6.19;58.95;99911.25;4421200;32;34008;-80
2023/11/18 02:17:18;;;;;;;1.05;1.00;;;;;;;6.32;58.87;99909.22;4407114;32;34595;-81
2023/11/18 02:19:46;;;;;;;0.00;0.00;;;;;;;6.32;58.82;99910.06;4420568;32;34376;-80
2023/11/18 02:22:15;;;;;;;0.40;0.40;;;;;;;5.93;60.00;99904.00;4415007;32;34564;-80
2023/11/18 02:24:43;;;;;;;0.00;0.00;;;;;;;6.55;58.09;99912.13;4408234;32;33644;-80
2023/11/18 02:27:11;;;;;;;0.00;0.00;;;;;;;6.64;57.92;99909.22;4420367;32;32833;-80
2023/11/18 02:29:42;;;;;;;0.47;0.47;;;;;;;6.88;57.08;99910.37;4402762;32;33980;-80
2023/11/18 02:32:30;;;;;;;0.00;0.00;;;;;;;6.85;57.24;99913.06;4407880;32;33044;-79
2023/11/18 02:35:02;;;;;;;2.30;0.45;;;;;;;6.92;56.93;99913.75;4414734;32;35208;-80
2023/11/18 02:37:32;;;;;;;0.25;0.25;;;;;;;6.83;57.20;99933.22;4421482;32;32479;-79
2023/11/18 02:40:08;;;;;;;0.25;0.25;;;;;;;6.54;58.00;99933.13;4408388;32;33402;-80
2023/11/18 02:42:37;;;;;;;0.00;0.00;;;;;;;6.62;58.13;99941.66;4407285;32;33333;-80
2023/11/18 02:45:07;;;;;;;0.00;0.00;;;;;;;6.21;59.06;99925.19;4420201;32;32163;-80
2023/11/18 02:47:36;;;;;;;0.08;0.08;;;;;;;6.51;58.94;99923.59;4409632;32;33812;-80
2023/11/18 02:50:10;;;;;;;0.25;0.25;;;;;;;6.27;59.78;99927.66;4406455;32;33953;-80
2023/11/18 02:52:39;;;;;;;0.00;0.00;;;;;;;6.64;58.74;99914.47;4444739;32;34149;-80
2023/11/18 02:55:08;;;;;;;0.05;0.05;;;;;;;6.77;58.33;99922.91;4407377;32;33820;-79
2023/11/18 02:57:36;;;;;;;0.00;0.00;;;;;;;6.55;59.12;99924.34;4423584;32;33441;-79
2023/11/18 03:00:11;;;;;;;0.00;0.00;;;;;;;6.02;60.74;99930.00;4425443;32;34263;-79
2023/11/18 03:02:39;;;;;;;0.52;0.52;;;;;;;6.14;60.81;99928.84;4423243;32;33453;-79
2023/11/18 03:05:07;;;;;;;0.17;0.17;;;;;;;6.56;59.54;99932.19;4413080;32;32673;-79
2023/11/18 03:07:35;;;;;;;0.10;0.10;;;;;;;6.21;59.92;99940.91;4424881;32;33611;-80
2023/11/18 03:10:09;;;;;;;0.10;0.10;;;;;;;6.20;60.68;99939.19;4425035;32;33953;-81
2023/11/18 03:12:37;;;;;;;0.00;0.00;;;;;;;6.53;60.03;99934.03;4424249;32;34814;-80
2023/11/18 03:15:09;;;;;;;0.57;0.57;;;;;;;6.54;59.53;99938.38;4423888;32;34045;-80
2023/11/18 03:17:38;;;;;;;0.45;0.45;;;;;;;6.57;59.92;99938.31;4410552;32;34251;-79
2023/11/18 03:20:08;;;;;;;0.62;0.62;;;;;;;6.09;61.27;99955.19;4424939;32;33636;-80
2023/11/18 03:22:36;;;;;;;0.00;0.00;;;;;;;6.18;61.14;99961.97;4424224;32;33833;-80
2023/11/18 03:25:05;;;;;;;1.17;1.08;;;;;;;6.61;59.70;99951.31;4425623;32;32363;-80
2023/11/18 03:27:33;;;;;;;0.15;0.15;;;;;;;6.33;61.01;99953.75;4439509;32;32608;-80
2023/11/18 03:30:01;;;;;;;1.00;0.98;;;;;;;6.77;59.37;99949.13;4425980;32;35074;-79
2023/11/18 03:32:29;;;;;;;0.43;0.43;;;;;;;6.62;59.76;99934.66;4435554;32;33725;-80
2023/11/18 03:34:59;;;;;;;0.25;0.25;;;;;;;6.53;60.34;99947.16;4423467;32;33796;-79
2023/11/18 03:37:27;;;;;;;0.13;0.13;;;;;;;6.25;61.23;99945.19;4412009;32;32692;-80
2023/11/18 03:39:55;;;;;;;0.10;0.10;;;;;;;6.38;60.94;99954.50;4425727;32;34413;-80
2023/11/18 03:42:23;;;;;;;0.10;0.10;;;;;;;6.06;61.72;99962.25;4420786;32;33850;-80
2023/11/18 03:44:50;;;;;;;0.17;0.17;;;;;;;6.34;61.33;99968.56;4430081;32;33509;-80
2023/11/18 03:47:18;;;;;;;0.25;0.25;;;;;;;6.41;60.99;99961.44;4416877;32;32958;-80
2023/11/18 03:49:46;;;;;;;0.00;0.00;;;;;;;6.47;60.43;99973.53;4422884;32;34661;-80
2023/11/18 03:52:14;;;;;;;0.00;0.00;;;;;;;6.23;61.47;99991.56;4423958;32;34113;-80
2023/11/18 03:54:42;;;;;;;0.32;0.32;;;;;;;6.25;61.63;99973.16;4399189;32;33257;-80
2023/11/18 03:57:10;;;;;;;0.00;0.00;;;;;;;6.38;60.77;99975.47;4427158;32;33589;-81
2023/11/18 03:59:41;;;;;;;0.00;0.00;;;;;;;6.60;60.23;99982.84;4423498;32;33667;-80
2023/11/18 04:02:11;;;;;;;0.10;0.10;;;;;;;6.78;59.78;99984.13;4414270;32;32885;-80
2023/11/18 04:04:39;;;;;;;0.03;0.03;;;;;;;6.73;59.73;99997.34;4422007;32;34494;-80
2023/11/18 04:07:07;;;;;;;0.00;0.00;;;;;;;6.70;59.75;99996.59;4423582;32;34054;-80
2023/11/18 04:09:35;;;;;;;0.00;0.00;;;;;;;6.85;59.28;99989.19;4421992;32;33719;-81
2023/11/18 04:12:03;;;;;;;0.00;0.00;;;;;;;6.86;59.26;99993.53;4423563;32;33740;-80
2023/11/18 04:14:31;;;;;;;0.00;0.00;;;;;;;7.09;58.40;99997.34;4392662;32;33462;-81
2023/11/18 04:16:59;;;;;;;0.10;0.10;;;;;;;6.80;59.54;100006.81;4409039;32;33671;-80
2023/11/18 04:19:27;;;;;;;0.75;0.45;;;;;;;6.91;58.50;99996.03;4423923;32;33886;-80
2023/11/18 04:21:55;;;;;;;0.00;0.00;;;;;;;6.63;59.86;100003.72;4416197;32;34094;-79
2023/11/18 04:24:22;;;;;;;0.20;0.20;;;;;;;6.58;60.09;100001.22;4421362;32;34336;-79
2023/11/18 04:26:50;;;;;;;1.33;0.98;;;;;;;6.35;60.80;100001.75;4409413;32;32341;-80
2023/11/18 04:29:18;;;;;;;0.30;0.30;;;;;;;6.95;59.07;100007.31;4423184;32;32495;-80
2023/11/18 04:31:46;;;;;;;0.00;0.00;;;;;;;6.77;59.07;100009.50;4418489;32;33862;-79
2023/11/18 04:34:14;;;;;;;0.00;0.00;;;;;;;6.44;60.66;100007.69;4416607;32;33265;-80
2023/11/18 04:36:42;;;;;;;0.00;0.00;;;;;;;6.39;60.91;100016.53;4425203;32;34201;-80
2023/11/18 04:39:14;;;;;;;0.10;0.10;;;;;;;6.82;59.53;100012.00;4412063;32;33474;-79
2023/11/18 04:41:43;;;;;;;0.00;0.00;;;;;;;6.71;59.45;100009.66;4422358;32;34543;-79
2023/11/18 04:44:11;;;;;;;0.00;0.00;;;;;;;6.86;59.20;100019.78;4420604;32;33510;-79
2023/11/18 04:46:39;;;;;;;0.00;0.00;;;;;;;6.98;58.96;100025.59;4414610;32;32665;-79
2023/11/18 04:49:07;;;;;;;0.30;0.30;;;;;;;6.89;58.96;100014.47;4429369;32;32947;-79
2023/11/18 04:51:35;;;;;;;0.50;0.50;;;;;;;6.37;60.71;100041.09;4436612;32;34173;-79
2023/11/18 04:54:03;;;;;;;0.15;0.15;;;;;;;6.60;60.43;100027.44;4424904;32;32879;-79
2023/11/18 04:56:31;;;;;;;0.10;0.10;;;;;;;7.19;58.26;100027.69;4411240;32;33050;-80
2023/11/18 04:58:58;;;;;;;0.03;0.03;;;;;;;7.17;57.49;100019.00;4426410;32;33726;-80
2023/11/18 05:01:26;;;;;;;0.00;0.00;;;;;;;6.49;60.62;100026.81;4424197;32;33987;-79
2023/11/18 05:03:54;;;;;;;0.08;0.08;;;;;;;6.35;60.93;100020.13;4426753;32;34130;-80
2023/11/18 05:06:22;;;;;;;0.00;0.00;;;;;;;6.38;60.69;100022.69;4426137;32;34964;-80
2023/11/18 05:08:50;;;;;;;1.25;0.88;;;;;;;6.41;60.50;100022.63;4423802;32;32774;-79
2023/11/18 05:11:18;;;;;;;0.50;0.28;;;;;;;6.72;59.47;100021.88;4422611;32;34739;-80
2023/11/18 05:13:46;;;;;;;0.00;0.00;;;;;;;6.86;58.93;100035.53;4428186;32;33715;-79
2023/11/18 05:16:14;;;;;;;0.00;0.00;;;;;;;6.29;60.90;100032.53;4424188;32;33305;-80
2023/11/18 05:18:42;;;;;;;0.10;0.10;;;;;;;6.24;60.38;100040.50;4412688;32;33032;-80
2023/11/18 05:21:11;;;;;;;2.90;0.35;;;;;;;6.34;60.37;100047.25;4425409;32;33817;-80
2023/11/18 05:23:39;;;;;;;0.00;0.00;;;;;;;6.82;58.94;100043.50;4412781;32;33343;-80
2023/11/18 05:26:07;;;;;;;0.10;0.10;;;;;;;6.66;59.40;100058.78;4402828;32;32689;-79
2023/11/18 05:28:35;;;;;;;0.00;0.00;;;;;;;6.56;59.61;100050.25;4433781;32;33703;-80
2023/11/18 05:31:04;;;;;;;0.10;0.10;;;;;;;6.46;59.73;100046.12;4427242;32;33214;-79
2023/11/18 05:33:35;;;;;;;0.45;0.45;;;;;;;6.65;59.06;100047.41;4423223;32;33632;-80
2023/11/18 05:36:05;;;;;;;0.35;0.35;;;;;;;6.48;59.78;100051.31;4424478;32;34450;-80
2023/11/18 05:38:35;;;;;;;7.03;1.87;;;;;;;6.37;60.11;100047.19;4426011;32;33953;-80
2023/11/18 05:41:03;;;;;;;0.30;0.17;;;;;;;6.32;60.14;100042.94;4421306;32;33075;-80
2023/11/18 05:43:40;;;;;;;0.95;0.60;;;;;;;6.28;60.39;100047.41;4423169;32;33553;-80
2023/11/18 05:46:18;;;;;;;0.25;0.25;;;;;;;6.26;60.98;100048.31;4418428;32;34279;-80
2023/11/18 05:48:47;;;;;;;0.00;0.00;;;;;;;6.75;58.91;100045.44;4424278;32;33708;-80
2023/11/18 05:51:19;;;;;;;0.10;0.10;;;;;;;6.49;60.03;100063.53;4438320;32;34207;-80
2023/11/18 05:53:47;;;;;;;0.10;0.10;;;;;;;6.56;59.17;100066.00;4411809;32;34089;-80
2023/11/18 05:56:18;;;;;;;0.30;0.30;;;;;;;6.87;58.72;100071.37;4439545;32;34384;-80
2023/11/18 05:58:45;;;;;;;0.25;0.25;;;;;;;6.45;59.46;100072.38;4438529;32;33599;-79
2023/11/18 06:01:14;;;;;;;0.30;0.30;;;;;;;6.66;59.23;100074.50;4426173;32;33865;-80
2023/11/18 06:03:42;;;;;;;0.10;0.10;;;;;;;6.08;61.01;100086.31;4439115;32;33137;-79
2023/11/18 06:06:16;;;;;;;0.00;0.00;;;;;;;6.06;60.87;100083.69;4425601;32;33517;-80
2023/11/18 06:08:49;;;;;;;0.52;0.52;;;;;;;5.97;61.34;100075.16;4438553;32;33555;-80
2023/11/18 06:11:18;;;;;;;0.15;0.15;;;;;;;6.47;59.79;100086.34;4437669;32;33933;-79
2023/11/18 06:13:50;;;;;;;0.10;0.10;;;;;;;6.44;60.00;100084.63;4446572;32;34033;-80
2023/11/18 06:16:20;;;;;;;1.35;1.10;;;;;;;6.40;60.12;100086.44;4436475;32;34812;-79
2023/11/18 06:18:50;;;;;;;0.00;0.00;;;;;;;6.40;nan;100082.97;4439516;32;32864;-80
2023/11/18 06:21:30;;;;;;;0.00;0.00;;;;;;;6.77;58.59;100088.25;4438097;32;33432;-80
2023/11/18 06:23:59;;;;;;;0.60;0.60;;;;;;;6.46;59.80;100077.59;4439372;32;32128;-79
2023/11/18 06:26:28;;;;;;;0.00;0.00;;;;;;;6.88;57.99;100072.22;4437007;32;34632;-79
2023/11/18 06:28:56;;;;;;;0.08;0.08;;;;;;;6.67;58.63;100076.22;4437772;32;33738;-79
2023/11/18 06:31:24;;;;;;;0.00;0.00;;;;;;;6.39;59.62;100074.22;4435566;32;35129;-79
2023/11/18 06:33:52;;;;;;;0.57;0.57;;;;;;;5.92;61.22;100088.34;4438513;32;33890;-78
2023/11/18 06:36:21;;;;;;;0.25;0.05;;;;;;;6.36;59.84;100090.06;4437361;32;33636;-79
2023/11/18 06:38:51;;;;;;;0.00;0.00;;;;;;;5.97;61.17;100093.50;4437575;32;34052;-80
2023/11/18 06:41:22;;;;;;;0.03;0.03;;;;;;;6.13;60.46;100100.16;4426018;32;33239;-80
2023/11/18 06:46:24;;;;;;;0.10;0.10;;;;;;;6.32;59.82;100100.66;4450680;32;32792;-80
2023/11/18 06:49:03;;;;;;;0.00;0.00;;;;;;;6.04;61.20;100100.34;4426290;32;33702;-80
2023/11/18 06:51:37;;;;;;;0.00;0.00;;;;;;;6.55;59.24;100101.00;4451204;32;34366;-80
2023/11/18 06:54:09;;;;;;;0.00;0.00;;;;;;;6.58;59.29;100108.78;4437135;32;33308;-79
2023/11/18 06:56:43;;;;;;;0.00;0.00;;;;;;;6.56;58.82;100104.50;4426735;32;33943;-80
2023/11/18 06:59:13;;;;;;;0.00;0.00;;;;;;;6.07;60.33;100122.09;4437120;32;33836;-79
2023/11/18 07:01:43;;;;;;;0.00;0.00;;;;;;;6.44;nan;100123.09;4424146;32;34610;-79
2023/11/18 07:04:14;;;;;;;0.00;0.00;;;;;;;6.72;58.63;100112.88;4424010;32;33575;-79
2023/11/18 07:06:43;;;;;;;0.00;0.00;;;;;;;6.72;58.87;100121.59;4443318;32;33928;-79
2023/11/18 07:09:13;;;;;;;2.25;1.00;;;;;;;6.23;59.98;100124.44;4437288;32;33903;-79
2023/11/18 07:11:41;;;;;;;0.77;0.70;;;;;;;6.61;58.84;100110.50;4436850;32;34356;-79
2023/11/18 07:14:10;;;;;;;0.05;0.05;;;;;;;6.51;59.37;100136.06;4436047;32;33187;-80
2023/11/18 07:16:39;;;;;;;0.08;0.08;;;;;;;6.87;58.06;100126.50;4435790;32;34840;-80
2023/11/18 07:19:07;;;;;;;0.00;0.00;;;;;;;7.00;57.40;100136.72;4435599;32;33581;-80
2023/11/18 07:21:35;;;;;;;0.00;0.00;;;;;;;6.60;58.84;100148.13;4436243;32;33933;-80
2023/11/18 07:24:03;;;;;;;0.62;0.62;;;;;;;7.04;57.61;100144.47;4427180;32;34388;-80
2023/11/18 07:26:31;;;;;;;0.00;0.00;;;;;;;7.10;57.18;100149.56;4436676;32;33666;-81
2023/11/18 07:28:59;;;;;;;0.00;0.00;;;;;;;7.36;56.44;100134.97;4424410;32;34778;-80
2023/11/18 07:31:28;;;;;;;0.00;0.00;;;;;;;7.37;56.70;100140.16;4424903;32;33456;-80
2023/11/18 07:33:56;;;;;;;0.13;0.13;;;;;;;7.29;56.88;100149.13;4437445;32;32583;-80
2023/11/18 07:36:25;;;;;;;0.20;0.20;;;;;;;6.78;58.45;100142.44;4437784;32;34675;-80
2023/11/18 07:38:55;;;;;;;0.13;0.13;;;;;;;7.32;56.69;100133.31;4435902;32;34215;-80
2023/11/18 07:41:27;;;;;;;0.00;0.00;;;;;;;7.01;58.16;100143.69;4437045;32;32899;-80
2023/11/18 07:44:00;;;;;;;4.12;0.85;;;;;;;7.13;57.48;100140.78;4436318;32;33540;-80
2023/11/18 07:46:30;;;;;;;0.00;0.00;;;;;;;6.94;58.33;100150.84;4424667;32;32690;-80
2023/11/18 07:49:01;;;;;;;0.10;0.10;;;;;;;7.61;55.97;100143.94;4434579;32;34342;-80
2023/11/18 07:51:29;;;;;;;0.13;0.13;;;;;;;7.60;56.15;100150.09;4424830;32;32724;-80
2023/11/18 07:53:56;;;;;;;0.00;0.00;;;;;;;7.68;55.73;100148.09;4426802;32;32539;-80
2023/11/18 07:56:27;;;;;;;0.65;0.65;;;;;;;7.49;56.29;100161.78;4441869;32;33445;-80
2023/11/18 07:58:54;;;;;;;0.17;0.17;;;;;;;7.56;55.53;100161.59;4436810;32;33050;-82
2023/11/18 08:01:23;;;;;;;0.05;0.05;;;;;;;7.45;56.40;100174.09;4431900;32;33859;-81
2023/11/18 08:03:54;;;;;;;0.00;0.00;;;;;;;7.61;56.27;100183.34;4436985;32;32321;-81
2023/11/18 08:06:26;;;;;;;0.15;0.15;;;;;;;8.06;54.69;100187.44;4422323;32;32527;-81
2023/11/18 08:08:57;;;;;;;;;;;;;;;8.12;54.34;100175.00;4436889;32;33192;-81
2023/11/18 08:11:46;;;;;;;0.10;0.10;;;;;;;8.31;54.20;100183.22;4431926;32;33401;-81
2023/11/18 08:14:13;;;;;;;0.00;0.00;;;;;;;7.84;55.76;100180.13;4449909;32;33968;-81
2023/11/18 08:16:41;;;;;;;0.00;0.00;;;;;;;7.87;55.70;100180.03;4434302;32;34447;-81
2023/11/18 08:19:11;;;;;;;0.15;0.15;;;;;;;7.88;54.47;100173.00;4433921;32;33399;-81
2023/11/18 08:21:39;;;;;;;0.00;0.00;;;;;;;7.61;55.59;100174.59;4436273;32;33399;-84
2023/11/18 08:24:08;;;;;;;0.00;0.00;;;;;;;8.14;53.61;100174.94;4436139;32;33399;-83
2023/11/18 08:26:36;;;;;;;0.57;0.57;;;;;;;7.58;55.48;100178.16;4437443;32;34329;-83
2023/11/18 08:29:04;;;;;;;0.00;0.00;;;;;;;7.90;54.67;100174.69;4438727;32;33200;-83
2023/11/18 08:31:32;;;;;;;0.08;0.08;;;;;;;8.13;53.67;100183.75;4438368;32;32758;-83
2023/11/18 08:34:00;;;;;;;0.30;0.22;;;;;;;8.03;54.13;100182.28;4438794;32;34339;-83
2023/11/18 08:36:32;;;;;;;0.00;0.00;;;;;;;7.59;55.39;100177.25;4426524;32;34622;-83
2023/11/18 08:39:00;;;;;;;0.00;0.00;;;;;;;7.76;55.18;100176.84;4437266;32;33046;-84
2023/11/18 08:41:28;;;;;;;0.00;0.00;;;;;;;8.37;53.36;100169.94;4434135;32;34356;-84
2023/11/18 08:43:57;;;;;;;0.00;0.00;;;;;;;8.44;53.15;100171.47;4438123;32;32431;-83
2023/11/18 08:46:41;;;;;;;0.25;0.15;;;;;;;8.32;53.88;100170.94;4427515;32;33289;-83
2023/11/18 08:49:13;;;;;;;0.15;0.15;;;;;;;8.28;53.45;100162.25;4438820;32;33728;-84
2023/11/18 08:51:41;;;;;;;0.00;0.00;;;;;;;8.44;52.93;100160.94;4437984;32;33333;-83
2023/11/18 08:56:57;;;;;;;0.00;0.00;;;;;;;8.78;51.49;100159.06;4450835;32;33803;-83
2023/11/18 08:59:25;;;;;;;0.30;0.30;;;;;;;8.14;53.25;100173.16;4437899;32;33797;-83
2023/11/18 09:01:55;;;;;;;0.30;0.30;;;;;;;8.64;52.46;100172.63;4436789;32;34491;-84
2023/11/18 09:04:24;;;;;;;0.20;0.20;;;;;;;8.90;51.43;100164.81;4413215;32;32648;-84
2023/11/18 09:06:53;;;;;;;0.00;0.00;;;;;;;8.55;52.74;100172.94;4425888;32;33815;-86
2023/11/18 09:09:27;;;;;;;0.00;0.00;;;;;;;8.52;53.20;100167.75;4437624;32;33442;-87
2023/11/18 09:11:57;;;;;;;0.03;0.03;;;;;;;8.99;51.76;100158.41;4425826;32;34585;-84
2023/11/18 09:14:25;;;;;;;0.08;0.00;;;;;;;9.53;49.19;100160.16;4436317;32;33649;-82
2023/11/18 09:16:58;;;;;;;0.20;0.20;;;;;;;9.21;50.18;100170.00;4438499;32;32589;-82
2023/11/18 09:19:27;;;;;;;0.00;0.00;;;;;;;9.22;51.01;100152.41;4424898;32;35192;-83
2023/11/18 09:21:55;;;;;;;0.00;0.00;;;;;;;9.19;51.32;100163.03;4437466;32;35352;-82
2023/11/18 09:24:36;;;;;;;0.10;0.10;;;;;;;9.21;50.30;100170.00;4437874;32;32783;-81
2023/11/18 09:27:06;;;;;;;5.47;0.30;;;;;;;8.64;51.81;100167.38;4422826;32;32701;-82
2023/11/18 09:29:34;;;;;;;0.25;0.25;;;;;;;9.07;50.94;100160.78;4438782;32;32843;-81
2023/11/18 09:32:05;;;;;;;0.00;0.00;;;;;;;9.51;50.00;100182.22;4425550;32;34120;-82
2023/11/18 09:34:34;;;;;;;0.00;0.00;;;;;;;9.11;50.79;100172.94;4447876;32;33216;-82
2023/11/18 09:37:04;;;;;;;0.00;0.00;;;;;;;9.01;51.35;100179.44;4413770;32;33869;-82
2023/11/18 09:39:37;;;;;;;0.00;0.00;;;;;;;9.14;51.27;100178.12;4437445;32;33902;-82
2023/11/18 09:42:10;;;;;;;0.00;0.00;;;;;;;8.88;51.91;100176.34;4431401;32;33084;-82
2023/11/18 09:44:37;;;;;;;0.57;0.57;;;;;;;9.24;50.28;100177.78;4436657;32;33121;-82
2023/11/18 09:47:09;;;;;;;0.00;0.00;;;;;;;9.37;50.71;100193.22;4426226;32;34537;-81
2023/11/18 09:49:45;;;;;;;0.00;0.00;;;;;;;8.91;51.40;100174.44;4451607;32;33738;-82
2023/11/18 09:52:17;;;;;;;0.10;0.10;;;;;;;9.71;49.07;100187.69;4425370;32;33448;-82
2023/11/18 09:55:14;;;;;;;0.65;0.65;;;;;;;9.71;48.50;100170.06;4437010;32;33647;-82
2023/11/18 09:57:57;;;;;;;0.03;0.03;;;;;;;9.42;49.63;100183.37;4438765;32;32878;-81
2023/11/18 10:00:26;;;;;;;0.00;0.00;;;;;;;9.51;49.62;100167.25;4437113;32;34478;-80
2023/11/18 10:03:00;;;;;;;0.17;0.17;;;;;;;8.84;51.65;100172.06;4426828;32;34542;-80
2023/11/18 10:05:30;;;;;;;0.00;0.00;;;;;;;9.64;49.64;100173.00;4437125;32;32956;-80
2023/11/18 10:07:58;;;;;;;0.30;0.13;;;;;;;9.60;49.83;100171.38;4423807;32;34614;-80
2023/11/18 10:10:35;;;;;;;0.00;0.00;;;;;;;9.39;49.19;100168.50;4449851;32;33894;-81
2023/11/18 10:13:18;;;;;;;0.00;0.00;;;;;;;9.44;49.16;100158.69;4435817;32;33398;-84
2023/11/18 10:15:48;;;;;;;0.20;0.20;;;;;;;9.42;48.72;100157.88;4429374;32;32602;-80
2023/11/18 10:18:24;;;;;;;0.00;0.00;;;;;;;9.69;48.65;100156.09;4436660;32;34550;-81
2023/11/18 10:20:53;;;;;;;0.17;0.17;;;;;;;9.59;48.19;100159.97;4451188;32;34521;-81
2023/11/18 10:23:22;;;;;;;0.08;0.08;;;;;;;9.86;47.52;100152.84;4424714;32;36152;-81
2023/11/18 10:25:56;;;;;;;0.05;0.05;;;;;;;9.40;49.33;100143.91;4436929;32;32943;-81
2023/11/18 10:28:32;;;;;;;0.03;0.03;;;;;;;9.62;48.80;100158.97;4448190;32;33041;-81
2023/11/18 10:31:04;;;;;;;0.00;0.00;;;;;;;10.16;46.12;100160.59;4421416;32;34665;-80
2023/11/18 10:33:35;;;;;;;0.00;0.00;;;;;;;9.49;48.29;100159.41;4435664;32;34551;-81
2023/11/18 10:36:05;;;;;;;0.00;0.00;;;;;;;9.67;47.91;100162.31;4433632;32;32560;-81
2023/11/18 10:38:43;;;;;;;0.30;0.30;;;;;;;9.68;47.77;100158.75;4434261;32;32716;-81
2023/11/18 10:41:12;;;;;;;0.43;0.20;;;;;;;9.91;47.69;100150.91;4434611;32;34954;-81
2023/11/18 10:43:41;;;;;;;0.00;0.00;;;;;;;9.56;48.10;100149.50;4424039;32;32984;-81
2023/11/18 10:46:11;;;;;;;0.13;0.13;;;;;;;9.78;47.53;100147.00;4424355;32;34246;-80
2023/11/18 10:48:42;;;;;;;0.00;0.00;;;;;;;10.05;46.64;100149.56;4436071;32;32492;-80
2023/11/18 10:51:11;;;;;;;0.00;0.00;;;;;;;10.03;47.42;100148.78;4435450;32;34458;-81
2023/11/18 10:53:42;;;;;;;0.10;0.10;;;;;;;10.06;47.12;100146.88;4425731;32;33699;-80
2023/11/18 10:56:19;;;;;;;0.20;0.20;;;;;;;10.19;47.49;100149.94;4433100;32;33843;-81
2023/11/18 10:58:48;;;;;;;0.00;0.00;;;;;;;10.67;45.06;100133.19;4431208;32;32648;-81
2023/11/18 11:01:31;;;;;;;0.00;0.00;;;;;;;9.75;48.34;100139.19;4437191;32;32898;-81
2023/11/18 11:04:04;;;;;;;0.10;0.10;;;;;;;9.84;47.74;100117.78;4437256;32;33752;-81
2023/11/18 11:06:33;;;;;;;0.55;0.55;;;;;;;9.79;48.01;100132.91;4425577;32;32520;-81
2023/11/18 11:09:00;;;;;;;0.08;0.08;;;;;;;10.41;46.18;100150.91;4425217;32;34021;-81
2023/11/18 11:11:48;;;;;;;0.10;0.10;;;;;;;10.01;47.19;100157.59;4436121;32;33806;-80
2023/11/18 11:14:19;;;;;;;0.45;0.37;;;;;;;9.82;47.82;100177.59;4435044;32;33777;-81
2023/11/18 11:16:53;;;;;;;0.00;0.00;;;;;;;9.93;47.10;100180.75;4431640;32;34113;-81
2023/11/18 11:19:44;;;;;;;0.45;0.45;;;;;;;10.33;46.52;100171.44;4437184;32;32035;-81
2023/11/18 11:22:20;;;;;;;0.00;0.00;;;;;;;10.42;46.65;100186.06;4437185;32;34053;-81
2023/11/18 11:24:57;;;;;;;0.17;0.17;;;;;;;10.55;46.36;100205.84;4433818;32;32928;-81
2023/11/18 11:27:35;;;;;;;0.00;0.00;;;;;;;10.04;47.11;100200.63;4435759;32;33030;-81
2023/11/18 11:30:10;;;;;;;0.10;0.10;;;;;;;9.91;46.62;100197.53;4436665;32;33932;-80
2023/11/18 11:32:51;;;;;;;0.00;0.00;;;;;;;9.93;46.41;100207.13;4436354;32;34126;-81
2023/11/18 11:35:30;;;;;;;0.55;0.55;;;;;;;9.75;48.65;100220.94;4437240;32;33928;-81
2023/11/18 11:38:04;;;;;;;0.00;0.00;;;;;;;10.31;47.57;100234.00;4433247;32;32919;-84
2023/11/18 11:40:32;;;;;;;3.15;1.83;;;;;;;10.43;46.28;100233.53;4438064;32;33209;-83
2023/11/18 11:43:01;;;;;;;0.10;0.10;;;;;;;9.70;48.48;100243.97;4423059;32;33571;-81
2023/11/18 11:45:28;;;;;;;0.00;0.00;;;;;;;10.23;46.20;100236.00;4434145;32;33136;-81
2023/11/18 11:48:19;;;;;;;0.00;0.00;;;;;;;10.31;46.46;100241.06;4423049;32;32908;-81
2023/11/18 11:51:04;;;;;;;0.10;0.10;;;;;;;10.02;47.13;100232.34;4449696;32;34823;-80
2023/11/18 11:53:45;;;;;;;0.00;0.00;;;;;;;9.98;47.16;100244.78;4421172;32;33073;-81
2023/11/18 11:56:20;;;;;;;0.90;0.62;;;;;;;9.19;49.66;100256.12;4438575;32;33815;-81